Terminal Aerodrome Forecast
Issued by NWS

Home | Current Version | Previous Version | Graphics & Text | Print | Product List | Glossary On
Versions: 1 2 3 4 5 6 7 8 9 10 11 12 13 14 15 16 17 18 19 20 21 22
000
FTUS43 KBIS 250728 AAA
TAFMOT
TAF AMD
KMOT 250728Z 2507/2606 23007KT 1SM -SN OVC021
     FM250800 24008KT 6SM -SN BKN025
     FM251000 25008KT P6SM OVC020
     FM251300 29008KT P6SM OVC008
     FM251900 33008KT P6SM BKN020
     FM252100 30007KT P6SM VCSH BKN015
     FM260000 06005KT P6SM BKN015=

USA.gov is the U.S. government's official web portal to all federal, state and local government web resources and services.